sensor_id;sensor_type;location;lat;lon;timestamp;temperature;humidity
5881;DHT22;2966;52.598;10.928;2022-09-24T00:01:22;11.70;99.90
5881;DHT22;2966;52.598;10.928;2022-09-24T00:03:50;11.70;99.90
5881;DHT22;2966;52.598;10.928;2022-09-24T00:06:18;11.70;99.90
5881;DHT22;2966;52.598;10.928;2022-09-24T00:08:46;11.70;99.90
5881;DHT22;2966;52.598;10.928;2022-09-24T00:11:13;11.70;99.90
5881;DHT22;2966;52.598;10.928;2022-09-24T00:13:43;11.70;99.90
5881;DHT22;2966;52.598;10.928;2022-09-24T00:16:11;11.70;99.90
5881;DHT22;2966;52.598;10.928;2022-09-24T00:18:39;11.80;99.90
5881;DHT22;2966;52.598;10.928;2022-09-24T00:21:14;11.70;99.90
5881;DHT22;2966;52.598;10.928;2022-09-24T00:23:41;11.70;99.90
5881;DHT22;2966;52.598;10.928;2022-09-24T00:26:09;11.70;99.90
5881;DHT22;2966;52.598;10.928;2022-09-24T00:28:55;11.70;99.90
5881;DHT22;2966;52.598;10.928;2022-09-24T00:31:22;11.80;99.90
5881;DHT22;2966;52.598;10.928;2022-09-24T00:33:49;11.80;99.90
5881;DHT22;2966;52.598;10.928;2022-09-24T00:36:17;11.80;99.90
5881;DHT22;2966;52.598;10.928;2022-09-24T00:38:46;11.80;99.90
5881;DHT22;2966;52.598;10.928;2022-09-24T00:41:13;11.80;99.90
5881;DHT22;2966;52.598;10.928;2022-09-24T00:43:40;11.70;99.90
5881;DHT22;2966;52.598;10.928;2022-09-24T00:46:13;11.80;99.90
5881;DHT22;2966;52.598;10.928;2022-09-24T00:48:42;11.80;99.90
5881;DHT22;2966;52.598;10.928;2022-09-24T00:51:12;11.80;99.90
5881;DHT22;2966;52.598;10.928;2022-09-24T00:53:43;11.80;99.90
5881;DHT22;2966;52.598;10.928;2022-09-24T00:56:12;11.80;99.90
5881;DHT22;2966;52.598;10.928;2022-09-24T00:58:43;11.80;99.90
5881;DHT22;2966;52.598;10.928;2022-09-24T01:01:11;11.80;99.90
5881;DHT22;2966;52.598;10.928;2022-09-24T01:03:39;11.80;99.90
5881;DHT22;2966;52.598;10.928;2022-09-24T01:06:07;11.80;99.90
5881;DHT22;2966;52.598;10.928;2022-09-24T01:08:34;11.80;99.90
5881;DHT22;2966;52.598;10.928;2022-09-24T01:11:14;11.80;99.90
5881;DHT22;2966;52.598;10.928;2022-09-24T01:14:17;11.80;99.90
5881;DHT22;2966;52.598;10.928;2022-09-24T01:16:50;11.80;99.90
5881;DHT22;2966;52.598;10.928;2022-09-24T01:19:38;11.80;99.90
5881;DHT22;2966;52.598;10.928;2022-09-24T01:22:13;11.80;99.90
5881;DHT22;2966;52.598;10.928;2022-09-24T01:24:54;11.70;99.90
5881;DHT22;2966;52.598;10.928;2022-09-24T01:27:36;11.70;99.90
5881;DHT22;2966;52.598;10.928;2022-09-24T01:30:08;11.70;99.90
5881;DHT22;2966;52.598;10.928;2022-09-24T01:32:39;11.60;99.90
5881;DHT22;2966;52.598;10.928;2022-09-24T01:35:10;11.60;99.90
5881;DHT22;2966;52.598;10.928;2022-09-24T01:37:43;11.60;99.90
5881;DHT22;2966;52.598;10.928;2022-09-24T01:40:11;11.60;99.90
5881;DHT22;2966;52.598;10.928;2022-09-24T01:42:39;11.60;99.90
5881;DHT22;2966;52.598;10.928;2022-09-24T01:45:10;11.60;99.90
5881;DHT22;2966;52.598;10.928;2022-09-24T01:47:39;11.60;99.90
5881;DHT22;2966;52.598;10.928;2022-09-24T01:50:07;11.60;99.90
5881;DHT22;2966;52.598;10.928;2022-09-24T01:52:37;11.60;99.90
5881;DHT22;2966;52.598;10.928;2022-09-24T01:55:07;11.60;99.90
5881;DHT22;2966;52.598;10.928;2022-09-24T01:57:38;11.60;99.90
5881;DHT22;2966;52.598;10.928;2022-09-24T02:00:10;11.60;99.90
5881;DHT22;2966;52.598;10.928;2022-09-24T02:02:40;11.60;99.90
5881;DHT22;2966;52.598;10.928;2022-09-24T02:05:15;11.60;99.90
5881;DHT22;2966;52.598;10.928;2022-09-24T02:07:47;11.60;99.90
5881;DHT22;2966;52.598;10.928;2022-09-24T02:10:18;11.60;99.90
5881;DHT22;2966;52.598;10.928;2022-09-24T02:12:48;11.60;99.90
5881;DHT22;2966;52.598;10.928;2022-09-24T02:15:20;11.60;99.90
5881;DHT22;2966;52.598;10.928;2022-09-24T02:17:53;11.50;99.90
5881;DHT22;2966;52.598;10.928;2022-09-24T02:20:23;11.50;99.90
5881;DHT22;2966;52.598;10.928;2022-09-24T02:22:54;11.50;99.90
5881;DHT22;2966;52.598;10.928;2022-09-24T02:25:25;11.50;99.90
5881;DHT22;2966;52.598;10.928;2022-09-24T02:27:53;11.50;99.90
5881;DHT22;2966;52.598;10.928;2022-09-24T02:30:21;11.50;99.90
5881;DHT22;2966;52.598;10.928;2022-09-24T02:32:48;11.50;99.90
5881;DHT22;2966;52.598;10.928;2022-09-24T02:35:16;11.40;99.90
5881;DHT22;2966;52.598;10.928;2022-09-24T02:37:43;11.40;99.90
5881;DHT22;2966;52.598;10.928;2022-09-24T02:40:12;11.40;99.90
5881;DHT22;2966;52.598;10.928;2022-09-24T02:42:41;11.30;99.90
5881;DHT22;2966;52.598;10.928;2022-09-24T02:45:09;11.40;99.90
5881;DHT22;2966;52.598;10.928;2022-09-24T02:47:37;11.40;99.90
5881;DHT22;2966;52.598;10.928;2022-09-24T02:50:04;11.40;99.90
5881;DHT22;2966;52.598;10.928;2022-09-24T02:52:31;11.30;99.90
5881;DHT22;2966;52.598;10.928;2022-09-24T02:54:58;11.30;99.90
5881;DHT22;2966;52.598;10.928;2022-09-24T02:57:25;11.30;99.90
5881;DHT22;2966;52.598;10.928;2022-09-24T02:59:51;11.30;99.90
5881;DHT22;2966;52.598;10.928;2022-09-24T03:02:18;11.30;99.90
5881;DHT22;2966;52.598;10.928;2022-09-24T03:04:46;11.30;99.90
5881;DHT22;2966;52.598;10.928;2022-09-24T03:07:13;11.30;99.90
5881;DHT22;2966;52.598;10.928;2022-09-24T03:09:40;11.30;99.90
5881;DHT22;2966;52.598;10.928;2022-09-24T03:12:06;11.30;99.90
5881;DHT22;2966;52.598;10.928;2022-09-24T03:14:33;11.30;99.90
5881;DHT22;2966;52.598;10.928;2022-09-24T03:17:00;11.30;99.90
5881;DHT22;2966;52.598;10.928;2022-09-24T03:19:27;11.30;99.90
5881;DHT22;2966;52.598;10.928;2022-09-24T03:21:55;11.30;99.90
5881;DHT22;2966;52.598;10.928;2022-09-24T03:24:22;11.30;99.90
5881;DHT22;2966;52.598;10.928;2022-09-24T03:26:48;11.30;99.90
5881;DHT22;2966;52.598;10.928;2022-09-24T03:29:16;11.20;99.90
5881;DHT22;2966;52.598;10.928;2022-09-24T03:32:02;11.20;99.90
5881;DHT22;2966;52.598;10.928;2022-09-24T03:34:28;11.20;99.90
5881;DHT22;2966;52.598;10.928;2022-09-24T03:37:02;11.20;99.90
5881;DHT22;2966;52.598;10.928;2022-09-24T03:39:29;11.20;99.90
5881;DHT22;2966;52.598;10.928;2022-09-24T03:41:55;11.20;99.90
5881;DHT22;2966;52.598;10.928;2022-09-24T03:44:22;11.20;99.90
5881;DHT22;2966;52.598;10.928;2022-09-24T03:46:50;11.20;99.90
5881;DHT22;2966;52.598;10.928;2022-09-24T03:49:16;11.20;99.90
5881;DHT22;2966;52.598;10.928;2022-09-24T03:51:43;11.20;99.90
5881;DHT22;2966;52.598;10.928;2022-09-24T03:54:11;11.20;99.90
5881;DHT22;2966;52.598;10.928;2022-09-24T03:56:38;11.20;99.90
5881;DHT22;2966;52.598;10.928;2022-09-24T03:59:05;11.20;99.90
5881;DHT22;2966;52.598;10.928;2022-09-24T04:01:32;11.20;99.90
5881;DHT22;2966;52.598;10.928;2022-09-24T04:04:02;11.10;99.90
5881;DHT22;2966;52.598;10.928;2022-09-24T04:06:28;11.10;99.90
5881;DHT22;2966;52.598;10.928;2022-09-24T04:08:55;11.10;99.90
5881;DHT22;2966;52.598;10.928;2022-09-24T04:11:24;11.10;99.90
5881;DHT22;2966;52.598;10.928;2022-09-24T04:13:50;11.10;99.90
5881;DHT22;2966;52.598;10.928;2022-09-24T04:16:17;11.10;99.90
5881;DHT22;2966;52.598;10.928;2022-09-24T04:18:44;11.00;99.90
5881;DHT22;2966;52.598;10.928;2022-09-24T04:21:13;11.00;99.90
5881;DHT22;2966;52.598;10.928;2022-09-24T04:23:39;11.00;99.90
5881;DHT22;2966;52.598;10.928;2022-09-24T04:26:06;11.00;99.90
5881;DHT22;2966;52.598;10.928;2022-09-24T04:28:34;11.00;99.90
5881;DHT22;2966;52.598;10.928;2022-09-24T04:31:01;11.00;99.90
5881;DHT22;2966;52.598;10.928;2022-09-24T04:33:28;11.00;99.90
5881;DHT22;2966;52.598;10.928;2022-09-24T04:35:54;11.10;99.90
5881;DHT22;2966;52.598;10.928;2022-09-24T04:38:21;11.10;99.90
5881;DHT22;2966;52.598;10.928;2022-09-24T04:40:48;11.10;99.90
5881;DHT22;2966;52.598;10.928;2022-09-24T04:43:15;11.10;99.90
5881;DHT22;2966;52.598;10.928;2022-09-24T04:45:43;11.00;99.90
5881;DHT22;2966;52.598;10.928;2022-09-24T04:48:10;11.00;99.90
5881;DHT22;2966;52.598;10.928;2022-09-24T04:50:37;11.00;99.90
5881;DHT22;2966;52.598;10.928;2022-09-24T04:53:04;11.00;99.90
5881;DHT22;2966;52.598;10.928;2022-09-24T04:55:30;11.00;99.90
5881;DHT22;2966;52.598;10.928;2022-09-24T04:57:57;10.90;99.90
5881;DHT22;2966;52.598;10.928;2022-09-24T05:00:25;10.90;99.90
5881;DHT22;2966;52.598;10.928;2022-09-24T05:02:56;10.90;99.90
5881;DHT22;2966;52.598;10.928;2022-09-24T05:05:24;10.90;99.90
5881;DHT22;2966;52.598;10.928;2022-09-24T05:07:51;10.90;99.90
5881;DHT22;2966;52.598;10.928;2022-09-24T05:10:21;10.90;99.90
5881;DHT22;2966;52.598;10.928;2022-09-24T05:12:48;10.90;99.90
5881;DHT22;2966;52.598;10.928;2022-09-24T05:15:15;10.90;99.90
5881;DHT22;2966;52.598;10.928;2022-09-24T05:17:44;10.90;99.90
5881;DHT22;2966;52.598;10.928;2022-09-24T05:20:16;10.90;99.90
5881;DHT22;2966;52.598;10.928;2022-09-24T05:22:43;10.90;99.90
5881;DHT22;2966;52.598;10.928;2022-09-24T05:25:11;10.90;99.90
5881;DHT22;2966;52.598;10.928;2022-09-24T05:27:43;10.90;99.90
5881;DHT22;2966;52.598;10.928;2022-09-24T05:30:10;10.90;99.90
5881;DHT22;2966;52.598;10.928;2022-09-24T05:32:36;10.90;99.90
5881;DHT22;2966;52.598;10.928;2022-09-24T05:35:04;10.90;99.90
5881;DHT22;2966;52.598;10.928;2022-09-24T05:37:34;10.90;99.90
5881;DHT22;2966;52.598;10.928;2022-09-24T05:40:01;10.90;99.90
5881;DHT22;2966;52.598;10.928;2022-09-24T05:42:48;11.00;99.90
5881;DHT22;2966;52.598;10.928;2022-09-24T05:45:15;11.00;99.90
5881;DHT22;2966;52.598;10.928;2022-09-24T05:47:43;11.00;99.90
5881;DHT22;2966;52.598;10.928;2022-09-24T05:50:10;11.00;99.90
5881;DHT22;2966;52.598;10.928;2022-09-24T05:52:39;11.10;99.90
5881;DHT22;2966;52.598;10.928;2022-09-24T05:55:08;11.10;99.90
5881;DHT22;2966;52.598;10.928;2022-09-24T05:57:35;11.10;99.90
5881;DHT22;2966;52.598;10.928;2022-09-24T06:00:03;11.10;99.90
5881;DHT22;2966;52.598;10.928;2022-09-24T06:02:31;11.10;99.90
5881;DHT22;2966;52.598;10.928;2022-09-24T06:04:58;11.10;99.90
5881;DHT22;2966;52.598;10.928;2022-09-24T06:07:24;11.10;99.90
5881;DHT22;2966;52.598;10.928;2022-09-24T06:09:52;11.10;99.90
5881;DHT22;2966;52.598;10.928;2022-09-24T06:12:19;11.20;99.90
5881;DHT22;2966;52.598;10.928;2022-09-24T06:14:48;11.20;99.90
5881;DHT22;2966;52.598;10.928;2022-09-24T06:17:15;11.20;99.90
5881;DHT22;2966;52.598;10.928;2022-09-24T06:19:41;11.20;99.90
5881;DHT22;2966;52.598;10.928;2022-09-24T06:22:08;11.20;99.90
5881;DHT22;2966;52.598;10.928;2022-09-24T06:24:35;11.20;99.90
5881;DHT22;2966;52.598;10.928;2022-09-24T06:27:03;11.30;99.90
5881;DHT22;2966;52.598;10.928;2022-09-24T06:29:30;11.30;99.90
5881;DHT22;2966;52.598;10.928;2022-09-24T06:31:57;11.30;99.90
5881;DHT22;2966;52.598;10.928;2022-09-24T06:34:24;11.30;99.90
5881;DHT22;2966;52.598;10.928;2022-09-24T06:36:52;11.30;99.90
5881;DHT22;2966;52.598;10.928;2022-09-24T06:39:19;11.40;99.90
5881;DHT22;2966;52.598;10.928;2022-09-24T06:41:46;11.40;99.90
5881;DHT22;2966;52.598;10.928;2022-09-24T06:44:16;11.40;99.90
5881;DHT22;2966;52.598;10.928;2022-09-24T06:46:44;11.50;99.90
5881;DHT22;2966;52.598;10.928;2022-09-24T06:49:10;11.50;99.90
5881;DHT22;2966;52.598;10.928;2022-09-24T06:51:38;11.50;99.90
5881;DHT22;2966;52.598;10.928;2022-09-24T06:54:05;11.60;99.90
5881;DHT22;2966;52.598;10.928;2022-09-24T06:56:31;11.60;99.90
5881;DHT22;2966;52.598;10.928;2022-09-24T06:58:58;11.70;99.90
5881;DHT22;2966;52.598;10.928;2022-09-24T07:01:26;11.70;99.90
5881;DHT22;2966;52.598;10.928;2022-09-24T07:03:53;11.70;99.90
5881;DHT22;2966;52.598;10.928;2022-09-24T07:06:20;11.80;99.90
5881;DHT22;2966;52.598;10.928;2022-09-24T07:08:49;11.80;99.90
5881;DHT22;2966;52.598;10.928;2022-09-24T07:11:16;12.00;99.90
5881;DHT22;2966;52.598;10.928;2022-09-24T07:13:43;12.00;99.90
5881;DHT22;2966;52.598;10.928;2022-09-24T07:16:10;12.00;99.90
5881;DHT22;2966;52.598;10.928;2022-09-24T07:18:38;12.10;99.90
5881;DHT22;2966;52.598;10.928;2022-09-24T07:21:05;12.20;99.90
5881;DHT22;2966;52.598;10.928;2022-09-24T07:23:31;12.20;99.90
5881;DHT22;2966;52.598;10.928;2022-09-24T07:25:58;12.20;99.90
5881;DHT22;2966;52.598;10.928;2022-09-24T07:28:25;12.30;99.90
5881;DHT22;2966;52.598;10.928;2022-09-24T07:30:56;12.40;99.90
5881;DHT22;2966;52.598;10.928;2022-09-24T07:33:23;12.40;99.90
5881;DHT22;2966;52.598;10.928;2022-09-24T07:35:51;12.40;99.90
5881;DHT22;2966;52.598;10.928;2022-09-24T07:38:20;12.40;99.90
5881;DHT22;2966;52.598;10.928;2022-09-24T07:40:47;12.50;99.90
5881;DHT22;2966;52.598;10.928;2022-09-24T07:43:14;12.60;99.90
5881;DHT22;2966;52.598;10.928;2022-09-24T07:45:42;12.60;99.90
5881;DHT22;2966;52.598;10.928;2022-09-24T07:48:11;12.70;99.90
5881;DHT22;2966;52.598;10.928;2022-09-24T07:50:40;12.80;99.90
5881;DHT22;2966;52.598;10.928;2022-09-24T07:53:09;12.90;99.90
5881;DHT22;2966;52.598;10.928;2022-09-24T07:55:37;12.90;99.90
5881;DHT22;2966;52.598;10.928;2022-09-24T07:58:06;12.90;99.90
5881;DHT22;2966;52.598;10.928;2022-09-24T08:00:33;13.00;99.90
5881;DHT22;2966;52.598;10.928;2022-09-24T08:03:00;13.00;99.90
5881;DHT22;2966;52.598;10.928;2022-09-24T08:05:27;13.10;99.90
5881;DHT22;2966;52.598;10.928;2022-09-24T08:07:56;13.20;99.90
5881;DHT22;2966;52.598;10.928;2022-09-24T08:10:25;13.30;99.90
5881;DHT22;2966;52.598;10.928;2022-09-24T08:12:53;13.50;99.90
5881;DHT22;2966;52.598;10.928;2022-09-24T08:15:21;13.60;99.90
5881;DHT22;2966;52.598;10.928;2022-09-24T08:17:48;13.70;99.90
5881;DHT22;2966;52.598;10.928;2022-09-24T08:20:15;13.90;99.90
5881;DHT22;2966;52.598;10.928;2022-09-24T08:22:41;14.00;99.90
5881;DHT22;2966;52.598;10.928;2022-09-24T08:25:08;13.90;99.90
5881;DHT22;2966;52.598;10.928;2022-09-24T08:27:36;14.00;99.90
5881;DHT22;2966;52.598;10.928;2022-09-24T08:30:04;14.00;99.90
5881;DHT22;2966;52.598;10.928;2022-09-24T08:32:31;14.10;99.90
5881;DHT22;2966;52.598;10.928;2022-09-24T08:34:57;14.20;99.90
5881;DHT22;2966;52.598;10.928;2022-09-24T08:37:26;14.20;99.90
5881;DHT22;2966;52.598;10.928;2022-09-24T08:39:53;14.30;99.90
5881;DHT22;2966;52.598;10.928;2022-09-24T08:42:29;14.50;99.90
5881;DHT22;2966;52.598;10.928;2022-09-24T08:44:59;14.60;99.90
5881;DHT22;2966;52.598;10.928;2022-09-24T08:47:47;14.60;99.90
5881;DHT22;2966;52.598;10.928;2022-09-24T08:50:16;14.70;99.90
5881;DHT22;2966;52.598;10.928;2022-09-24T08:53:00;14.70;99.90
5881;DHT22;2966;52.598;10.928;2022-09-24T08:55:32;14.70;99.90
5881;DHT22;2966;52.598;10.928;2022-09-24T08:58:21;14.70;99.90
5881;DHT22;2966;52.598;10.928;2022-09-24T09:00:55;14.80;99.90
5881;DHT22;2966;52.598;10.928;2022-09-24T09:03:31;14.90;99.90
5881;DHT22;2966;52.598;10.928;2022-09-24T09:06:02;14.80;99.90
5881;DHT22;2966;52.598;10.928;2022-09-24T09:08:38;14.90;99.90
5881;DHT22;2966;52.598;10.928;2022-09-24T09:11:10;15.10;99.90
5881;DHT22;2966;52.598;10.928;2022-09-24T09:13:41;15.00;99.90
5881;DHT22;2966;52.598;10.928;2022-09-24T09:16:21;15.10;99.90
5881;DHT22;2966;52.598;10.928;2022-09-24T09:18:50;15.10;99.90
5881;DHT22;2966;52.598;10.928;2022-09-24T09:21:25;15.20;99.90
5881;DHT22;2966;52.598;10.928;2022-09-24T09:23:55;15.20;99.90
5881;DHT22;2966;52.598;10.928;2022-09-24T09:26:24;15.20;99.90
5881;DHT22;2966;52.598;10.928;2022-09-24T09:28:54;15.20;99.90
5881;DHT22;2966;52.598;10.928;2022-09-24T09:31:33;15.20;99.90
5881;DHT22;2966;52.598;10.928;2022-09-24T09:34:15;15.30;99.90
5881;DHT22;2966;52.598;10.928;2022-09-24T09:36:53;15.40;99.90
5881;DHT22;2966;52.598;10.928;2022-09-24T09:39:33;15.40;99.90
5881;DHT22;2966;52.598;10.928;2022-09-24T09:42:14;15.30;99.90
5881;DHT22;2966;52.598;10.928;2022-09-24T09:44:42;15.30;99.90
5881;DHT22;2966;52.598;10.928;2022-09-24T09:47:20;15.40;99.90
5881;DHT22;2966;52.598;10.928;2022-09-24T09:49:49;15.40;99.90
5881;DHT22;2966;52.598;10.928;2022-09-24T09:52:20;15.50;99.90
5881;DHT22;2966;52.598;10.928;2022-09-24T09:54:48;15.40;99.90
5881;DHT22;2966;52.598;10.928;2022-09-24T09:57:18;15.40;99.90
5881;DHT22;2966;52.598;10.928;2022-09-24T09:59:46;15.50;99.90
5881;DHT22;2966;52.598;10.928;2022-09-24T10:02:22;15.50;99.90
5881;DHT22;2966;52.598;10.928;2022-09-24T10:04:52;15.50;99.90
5881;DHT22;2966;52.598;10.928;2022-09-24T10:07:20;15.50;99.90
5881;DHT22;2966;52.598;10.928;2022-09-24T10:09:58;15.50;99.90
5881;DHT22;2966;52.598;10.928;2022-09-24T10:12:25;15.40;99.90
5881;DHT22;2966;52.598;10.928;2022-09-24T10:14:59;15.60;99.90
5881;DHT22;2966;52.598;10.928;2022-09-24T10:17:33;15.70;99.90
5881;DHT22;2966;52.598;10.928;2022-09-24T10:20:07;15.70;99.90
5881;DHT22;2966;52.598;10.928;2022-09-24T10:22:36;15.80;99.90
5881;DHT22;2966;52.598;10.928;2022-09-24T10:25:04;15.90;99.90
5881;DHT22;2966;52.598;10.928;2022-09-24T10:27:34;16.00;99.90
5881;DHT22;2966;52.598;10.928;2022-09-24T10:30:03;16.00;99.90
5881;DHT22;2966;52.598;10.928;2022-09-24T10:32:57;16.00;99.90
5881;DHT22;2966;52.598;10.928;2022-09-24T10:35:28;16.10;99.90
5881;DHT22;2966;52.598;10.928;2022-09-24T10:37:57;16.10;99.90
5881;DHT22;2966;52.598;10.928;2022-09-24T10:40:27;16.20;99.90
5881;DHT22;2966;52.598;10.928;2022-09-24T10:43:00;16.20;99.90
5881;DHT22;2966;52.598;10.928;2022-09-24T10:48:25;16.00;99.90
5881;DHT22;2966;52.598;10.928;2022-09-24T10:50:57;16.10;99.90
5881;DHT22;2966;52.598;10.928;2022-09-24T10:53:37;16.10;99.90
5881;DHT22;2966;52.598;10.928;2022-09-24T10:56:15;16.00;99.90
5881;DHT22;2966;52.598;10.928;2022-09-24T10:59:11;16.00;99.90
5881;DHT22;2966;52.598;10.928;2022-09-24T11:01:45;16.00;99.90
5881;DHT22;2966;52.598;10.928;2022-09-24T11:04:32;15.90;99.90
5881;DHT22;2966;52.598;10.928;2022-09-24T11:10:00;15.90;99.90
5881;DHT22;2966;52.598;10.928;2022-09-24T11:12:34;16.00;99.90
5881;DHT22;2966;52.598;10.928;2022-09-24T11:15:24;16.10;99.90
5881;DHT22;2966;52.598;10.928;2022-09-24T11:18:07;16.00;99.90
5881;DHT22;2966;52.598;10.928;2022-09-24T11:20:44;16.10;99.90
5881;DHT22;2966;52.598;10.928;2022-09-24T11:26:19;16.10;99.90
5881;DHT22;2966;52.598;10.928;2022-09-24T11:29:05;16.20;99.90
5881;DHT22;2966;52.598;10.928;2022-09-24T11:31:40;16.10;99.90
5881;DHT22;2966;52.598;10.928;2022-09-24T11:34:41;16.10;99.90
5881;DHT22;2966;52.598;10.928;2022-09-24T11:37:25;16.00;99.90
5881;DHT22;2966;52.598;10.928;2022-09-24T11:40:06;16.10;99.90
5881;DHT22;2966;52.598;10.928;2022-09-24T11:42:50;16.20;99.90
5881;DHT22;2966;52.598;10.928;2022-09-24T11:45:47;16.30;99.90
5881;DHT22;2966;52.598;10.928;2022-09-24T11:48:33;16.40;99.90
5881;DHT22;2966;52.598;10.928;2022-09-24T11:51:13;16.60;99.90
5881;DHT22;2966;52.598;10.928;2022-09-24T11:53:48;16.80;99.90
5881;DHT22;2966;52.598;10.928;2022-09-24T11:56:21;16.80;99.90
5881;DHT22;2966;52.598;10.928;2022-09-24T11:58:51;16.80;99.90
5881;DHT22;2966;52.598;10.928;2022-09-24T12:01:26;16.80;99.90
5881;DHT22;2966;52.598;10.928;2022-09-24T12:03:57;16.70;99.90
5881;DHT22;2966;52.598;10.928;2022-09-24T12:06:30;16.70;99.90
5881;DHT22;2966;52.598;10.928;2022-09-24T12:09:08;16.80;99.90
5881;DHT22;2966;52.598;10.928;2022-09-24T12:11:43;16.80;99.90
5881;DHT22;2966;52.598;10.928;2022-09-24T12:14:17;16.80;99.90
5881;DHT22;2966;52.598;10.928;2022-09-24T12:16:46;16.80;99.90
5881;DHT22;2966;52.598;10.928;2022-09-24T12:19:19;16.80;99.90
5881;DHT22;2966;52.598;10.928;2022-09-24T12:21:50;16.80;99.90
5881;DHT22;2966;52.598;10.928;2022-09-24T12:24:22;16.90;99.90
5881;DHT22;2966;52.598;10.928;2022-09-24T12:26:50;17.00;99.90
5881;DHT22;2966;52.598;10.928;2022-09-24T12:29:40;17.00;99.90
5881;DHT22;2966;52.598;10.928;2022-09-24T12:32:32;16.90;99.90
5881;DHT22;2966;52.598;10.928;2022-09-24T12:35:30;16.90;99.90
5881;DHT22;2966;52.598;10.928;2022-09-24T12:38:01;16.80;99.90
5881;DHT22;2966;52.598;10.928;2022-09-24T12:41:00;16.80;99.90
5881;DHT22;2966;52.598;10.928;2022-09-24T12:43:35;16.80;99.90
5881;DHT22;2966;52.598;10.928;2022-09-24T12:46:05;16.80;99.90
5881;DHT22;2966;52.598;10.928;2022-09-24T12:48:36;16.50;99.90
5881;DHT22;2966;52.598;10.928;2022-09-24T12:51:05;16.60;99.90
5881;DHT22;2966;52.598;10.928;2022-09-24T12:53:35;16.80;99.90
5881;DHT22;2966;52.598;10.928;2022-09-24T12:56:05;16.80;99.90
5881;DHT22;2966;52.598;10.928;2022-09-24T12:58:37;16.90;99.90
5881;DHT22;2966;52.598;10.928;2022-09-24T13:01:07;16.80;99.90
5881;DHT22;2966;52.598;10.928;2022-09-24T13:03:39;16.70;99.90
5881;DHT22;2966;52.598;10.928;2022-09-24T13:06:21;16.60;99.90
5881;DHT22;2966;52.598;10.928;2022-09-24T13:08:48;16.50;99.90
5881;DHT22;2966;52.598;10.928;2022-09-24T13:11:30;16.30;99.90
5881;DHT22;2966;52.598;10.928;2022-09-24T13:13:59;16.20;99.90
5881;DHT22;2966;52.598;10.928;2022-09-24T13:16:27;16.10;99.90
5881;DHT22;2966;52.598;10.928;2022-09-24T13:18:57;16.20;99.90
5881;DHT22;2966;52.598;10.928;2022-09-24T13:21:26;16.20;99.90
5881;DHT22;2966;52.598;10.928;2022-09-24T13:23:54;16.20;99.90
5881;DHT22;2966;52.598;10.928;2022-09-24T13:26:31;16.10;99.90
5881;DHT22;2966;52.598;10.928;2022-09-24T13:29:03;16.20;99.90
5881;DHT22;2966;52.598;10.928;2022-09-24T13:31:42;16.20;99.90
5881;DHT22;2966;52.598;10.928;2022-09-24T13:34:16;16.20;99.90
5881;DHT22;2966;52.598;10.928;2022-09-24T13:36:47;16.10;99.90
5881;DHT22;2966;52.598;10.928;2022-09-24T13:39:16;16.10;99.90
5881;DHT22;2966;52.598;10.928;2022-09-24T13:41:52;16.00;99.90
5881;DHT22;2966;52.598;10.928;2022-09-24T13:44:26;16.00;99.90
5881;DHT22;2966;52.598;10.928;2022-09-24T13:46:58;15.90;99.90
5881;DHT22;2966;52.598;10.928;2022-09-24T13:49:40;15.70;99.90
5881;DHT22;2966;52.598;10.928;2022-09-24T13:52:24;15.70;99.90
5881;DHT22;2966;52.598;10.928;2022-09-24T13:54:56;15.60;99.90
5881;DHT22;2966;52.598;10.928;2022-09-24T13:57:28;15.50;99.90
5881;DHT22;2966;52.598;10.928;2022-09-24T14:00:20;15.50;99.90
5881;DHT22;2966;52.598;10.928;2022-09-24T14:02:53;15.50;99.90
5881;DHT22;2966;52.598;10.928;2022-09-24T14:05:22;15.40;99.90
5881;DHT22;2966;52.598;10.928;2022-09-24T14:08:00;15.40;99.90
5881;DHT22;2966;52.598;10.928;2022-09-24T14:10:31;15.30;99.90
5881;DHT22;2966;52.598;10.928;2022-09-24T14:13:08;15.30;99.90
5881;DHT22;2966;52.598;10.928;2022-09-24T14:15:36;15.30;99.90
5881;DHT22;2966;52.598;10.928;2022-09-24T14:18:13;15.30;99.90
5881;DHT22;2966;52.598;10.928;2022-09-24T14:20:43;15.30;99.90
5881;DHT22;2966;52.598;10.928;2022-09-24T14:23:16;15.30;99.90
5881;DHT22;2966;52.598;10.928;2022-09-24T14:25:45;15.30;99.90
5881;DHT22;2966;52.598;10.928;2022-09-24T14:28:14;15.30;99.90
5881;DHT22;2966;52.598;10.928;2022-09-24T14:30:48;15.20;99.90
5881;DHT22;2966;52.598;10.928;2022-09-24T14:33:20;15.20;99.90
5881;DHT22;2966;52.598;10.928;2022-09-24T14:35:52;15.20;99.90
5881;DHT22;2966;52.598;10.928;2022-09-24T14:38:25;15.20;99.90
5881;DHT22;2966;52.598;10.928;2022-09-24T14:40:56;15.20;99.90
5881;DHT22;2966;52.598;10.928;2022-09-24T14:43:31;15.20;99.90
5881;DHT22;2966;52.598;10.928;2022-09-24T14:46:02;15.20;99.90
5881;DHT22;2966;52.598;10.928;2022-09-24T14:48:31;15.20;99.90
5881;DHT22;2966;52.598;10.928;2022-09-24T14:50:59;15.20;99.90
5881;DHT22;2966;52.598;10.928;2022-09-24T14:53:27;15.20;99.90
5881;DHT22;2966;52.598;10.928;2022-09-24T14:56:05;15.20;99.90
5881;DHT22;2966;52.598;10.928;2022-09-24T14:58:37;15.20;99.90
5881;DHT22;2966;52.598;10.928;2022-09-24T15:01:05;15.10;99.90
5881;DHT22;2966;52.598;10.928;2022-09-24T15:03:40;15.10;99.90
5881;DHT22;2966;52.598;10.928;2022-09-24T15:06:16;15.10;99.90
5881;DHT22;2966;52.598;10.928;2022-09-24T15:08:43;15.10;99.90
5881;DHT22;2966;52.598;10.928;2022-09-24T15:11:17;15.00;99.90
5881;DHT22;2966;52.598;10.928;2022-09-24T15:13:45;15.00;99.90
5881;DHT22;2966;52.598;10.928;2022-09-24T15:16:29;15.00;99.90
5881;DHT22;2966;52.598;10.928;2022-09-24T15:18:59;15.00;99.90
5881;DHT22;2966;52.598;10.928;2022-09-24T15:21:26;15.00;99.90
5881;DHT22;2966;52.598;10.928;2022-09-24T15:23:54;15.00;99.90
5881;DHT22;2966;52.598;10.928;2022-09-24T15:26:26;14.90;99.90
5881;DHT22;2966;52.598;10.928;2022-09-24T15:28:55;14.90;99.90
5881;DHT22;2966;52.598;10.928;2022-09-24T15:31:22;14.90;99.90
5881;DHT22;2966;52.598;10.928;2022-09-24T15:33:50;14.80;99.90
5881;DHT22;2966;52.598;10.928;2022-09-24T15:36:16;14.80;99.90
5881;DHT22;2966;52.598;10.928;2022-09-24T15:38:45;14.80;99.90
5881;DHT22;2966;52.598;10.928;2022-09-24T15:41:12;14.70;99.90
5881;DHT22;2966;52.598;10.928;2022-09-24T15:43:39;14.70;99.90
5881;DHT22;2966;52.598;10.928;2022-09-24T15:46:07;14.70;99.90
5881;DHT22;2966;52.598;10.928;2022-09-24T15:48:33;14.70;99.90
5881;DHT22;2966;52.598;10.928;2022-09-24T15:51:01;14.50;99.90
5881;DHT22;2966;52.598;10.928;2022-09-24T15:53:28;14.50;99.90
5881;DHT22;2966;52.598;10.928;2022-09-24T15:55:58;14.50;99.90
5881;DHT22;2966;52.598;10.928;2022-09-24T15:58:26;14.50;99.90
5881;DHT22;2966;52.598;10.928;2022-09-24T16:00:53;14.50;99.90
5881;DHT22;2966;52.598;10.928;2022-09-24T16:03:23;14.40;99.90
5881;DHT22;2966;52.598;10.928;2022-09-24T16:05:51;14.30;99.90
5881;DHT22;2966;52.598;10.928;2022-09-24T16:08:18;14.30;99.90
5881;DHT22;2966;52.598;10.928;2022-09-24T16:10:44;14.30;99.90
5881;DHT22;2966;52.598;10.928;2022-09-24T16:13:15;14.30;99.90
5881;DHT22;2966;52.598;10.928;2022-09-24T16:15:42;14.30;99.90
5881;DHT22;2966;52.598;10.928;2022-09-24T16:18:12;14.20;99.90